createdAt,value
2022-11-30T00:00:14.118Z,29.55
2022-11-30T00:03:00.991Z,29.73
2022-11-30T00:05:28.216Z,30.70
2022-11-30T00:07:55.049Z,28.40
2022-11-30T00:10:22.309Z,27.92
2022-11-30T00:12:49.713Z,27.45
2022-11-30T00:15:17.576Z,28.02
2022-11-30T00:17:44.799Z,30.10
2022-11-30T00:20:13.356Z,27.95
2022-11-30T00:22:40.304Z,28.35
2022-11-30T00:25:07.768Z,28.02
2022-11-30T00:27:34.688Z,27.65
2022-11-30T00:30:01.880Z,27.67
2022-11-30T00:32:28.772Z,26.65
2022-11-30T00:34:55.800Z,27.63
2022-11-30T00:37:22.676Z,27.58
2022-11-30T00:39:49.720Z,26.98
2022-11-30T00:42:16.500Z,26.70
2022-11-30T00:44:43.620Z,27.92
2022-11-30T00:47:10.467Z,27.40
2022-11-30T00:49:37.825Z,26.83
2022-11-30T00:52:04.687Z,26.13
2022-11-30T00:54:31.747Z,28.25
2022-11-30T00:56:58.470Z,26.35
2022-11-30T00:59:25.877Z,26.90
2022-11-30T01:01:54.732Z,25.05
2022-11-30T01:04:21.747Z,26.77
2022-11-30T01:06:48.583Z,27.05
2022-11-30T01:09:15.571Z,26.15
2022-11-30T01:11:42.260Z,26.45
2022-11-30T01:14:09.327Z,25.45
2022-11-30T01:16:36.024Z,26.85
2022-11-30T01:19:03.888Z,27.17
2022-11-30T01:21:30.658Z,27.50
2022-11-30T01:23:57.706Z,28.83
2022-11-30T01:26:24.506Z,26.08
2022-11-30T01:28:54.995Z,25.95
2022-11-30T01:31:23.645Z,24.90
2022-11-30T01:33:54.959Z,27.92
2022-11-30T01:36:25.513Z,27.35
2022-11-30T01:38:54.374Z,25.80
2022-11-30T01:41:25.507Z,27.90
2022-11-30T01:43:54.446Z,26.98
2022-11-30T01:46:28.826Z,26.50
2022-11-30T01:49:03.742Z,25.95
2022-11-30T01:51:36.281Z,24.17
2022-11-30T01:54:04.959Z,26.60
2022-11-30T01:56:31.947Z,26.30
2022-11-30T01:58:59.050Z,24.10
2022-11-30T02:01:25.842Z,26.42
2022-11-30T02:03:59.606Z,29.23
2022-11-30T02:06:26.423Z,24.10
2022-11-30T02:08:53.601Z,26.98
2022-11-30T02:11:20.318Z,27.15
2022-11-30T02:14:05.639Z,24.50
2022-11-30T02:16:53.518Z,24.38
2022-11-30T02:19:29.994Z,25.70
2022-11-30T02:22:23.998Z,25.50
2022-11-30T02:25:09.446Z,26.05
2022-11-30T02:27:45.282Z,26.38
2022-11-30T02:30:16.774Z,26.05
2022-11-30T02:33:05.862Z,27.15
2022-11-30T02:35:34.765Z,26.08
2022-11-30T02:38:01.689Z,27.17
2022-11-30T02:40:28.843Z,27.73
2022-11-30T02:42:56.093Z,26.45
2022-11-30T02:45:38.521Z,25.35
2022-11-30T02:48:08.991Z,26.58
2022-11-30T02:51:00.159Z,24.77
2022-11-30T02:53:26.965Z,24.80
2022-11-30T02:55:54.137Z,26.05
2022-11-30T02:58:20.897Z,25.75
2022-11-30T03:00:47.977Z,27.02
2022-11-30T03:03:14.673Z,26.95
2022-11-30T03:05:41.741Z,25.85
2022-11-30T03:08:08.449Z,27.58
2022-11-30T03:10:35.497Z,25.38
2022-11-30T03:13:02.194Z,26.98
2022-11-30T03:15:29.201Z,25.50
2022-11-30T03:17:55.921Z,26.98
2022-11-30T03:20:23.059Z,26.75
2022-11-30T03:22:49.773Z,29.65
2022-11-30T03:25:16.830Z,28.88
2022-11-30T03:27:43.565Z,27.77
2022-11-30T03:30:11.137Z,25.88
2022-11-30T03:32:37.845Z,28.83
2022-11-30T03:35:05.213Z,29.35
2022-11-30T03:37:31.979Z,27.88
2022-11-30T03:39:58.970Z,27.73
2022-11-30T03:42:25.691Z,27.85
2022-11-30T03:44:52.753Z,27.65
2022-11-30T03:47:19.493Z,25.73
2022-11-30T03:49:46.521Z,27.77
2022-11-30T03:52:13.279Z,28.02
2022-11-30T03:54:40.273Z,27.90
2022-11-30T03:57:07.001Z,28.45
2022-11-30T03:59:34.044Z,26.48
2022-11-30T04:02:00.948Z,28.67
2022-11-30T04:04:28.033Z,29.08
2022-11-30T04:06:54.734Z,28.92
2022-11-30T04:09:21.764Z,28.25
2022-11-30T04:11:48.488Z,27.63
2022-11-30T04:14:15.563Z,26.98
2022-11-30T04:16:42.304Z,25.80
2022-11-30T04:19:09.328Z,29.05
2022-11-30T04:21:36.232Z,28.13
2022-11-30T04:24:03.443Z,28.95
2022-11-30T04:26:30.168Z,27.63
2022-11-30T04:28:57.183Z,26.55
2022-11-30T04:31:24.008Z,26.58
2022-11-30T04:33:54.531Z,25.60
2022-11-30T04:36:21.259Z,25.25
2022-11-30T04:38:48.585Z,26.55
2022-11-30T04:41:15.495Z,26.30
2022-11-30T04:43:42.564Z,26.08
2022-11-30T04:46:09.319Z,27.08
2022-11-30T04:48:36.393Z,27.83
2022-11-30T04:51:07.342Z,27.95
2022-11-30T04:53:34.792Z,26.83
2022-11-30T04:56:08.371Z,27.00
2022-11-30T04:58:35.552Z,29.10
2022-11-30T05:01:02.285Z,30.00
2022-11-30T05:03:29.328Z,28.90
2022-11-30T05:05:56.223Z,29.02
2022-11-30T05:08:23.425Z,28.90
2022-11-30T05:10:53.648Z,31.10
2022-11-30T05:13:21.571Z,28.55
2022-11-30T05:15:48.392Z,29.23
2022-11-30T05:18:18.609Z,28.73
2022-11-30T05:20:49.378Z,27.95
2022-11-30T05:23:17.051Z,27.63
2022-11-30T05:25:43.918Z,30.05
2022-11-30T05:28:11.174Z,28.05
2022-11-30T05:30:39.741Z,27.83
2022-11-30T05:33:06.899Z,28.90
2022-11-30T05:35:33.831Z,29.83
2022-11-30T05:38:00.848Z,29.08
2022-11-30T05:40:28.799Z,29.38
2022-11-30T05:42:56.906Z,27.25
2022-11-30T05:45:24.182Z,29.35
2022-11-30T05:47:51.314Z,29.45
2022-11-30T05:50:18.078Z,28.70
2022-11-30T05:52:45.178Z,30.75
2022-11-30T05:55:11.946Z,28.20
2022-11-30T05:57:39.365Z,31.40
2022-11-30T06:00:07.181Z,30.10
2022-11-30T06:02:34.329Z,28.83
2022-11-30T06:05:01.400Z,30.75
2022-11-30T06:07:28.407Z,27.55
2022-11-30T06:09:55.245Z,29.75
2022-11-30T06:12:22.242Z,32.60
2022-11-30T06:14:50.857Z,30.67
2022-11-30T06:17:17.889Z,30.40
2022-11-30T06:19:44.605Z,31.13
2022-11-30T06:22:11.618Z,30.15
2022-11-30T06:24:38.318Z,30.92
2022-11-30T06:27:05.338Z,30.60
2022-11-30T06:29:32.070Z,30.80
2022-11-30T06:31:59.194Z,31.55
2022-11-30T06:34:25.965Z,30.00
2022-11-30T06:36:53.018Z,31.30
2022-11-30T06:39:36.686Z,31.83
2022-11-30T06:42:06.893Z,30.67
2022-11-30T06:44:33.721Z,29.33
2022-11-30T06:47:00.754Z,28.92
2022-11-30T06:49:28.276Z,29.23
2022-11-30T06:51:55.981Z,30.13
2022-11-30T06:54:22.771Z,30.73
2022-11-30T06:56:49.895Z,32.30
2022-11-30T06:59:16.582Z,33.30
2022-11-30T07:01:43.613Z,31.65
2022-11-30T07:04:10.484Z,30.27
2022-11-30T07:06:37.628Z,30.67
2022-11-30T07:09:04.442Z,32.78
2022-11-30T07:11:33.335Z,34.65
2022-11-30T07:14:00.729Z,31.30
2022-11-30T07:16:27.766Z,32.50
2022-11-30T07:18:54.597Z,35.58
2022-11-30T07:21:21.589Z,31.73
2022-11-30T07:24:07.063Z,32.92
2022-11-30T07:26:34.240Z,32.25
2022-11-30T07:29:00.937Z,31.73
2022-11-30T07:31:29.352Z,33.67
2022-11-30T07:33:57.146Z,32.60
2022-11-30T07:36:25.594Z,31.75
2022-11-30T07:38:52.365Z,33.47
2022-11-30T07:41:19.413Z,32.80
2022-11-30T07:43:46.134Z,32.72
2022-11-30T07:46:14.226Z,33.33
2022-11-30T07:48:41.090Z,32.00
2022-11-30T07:51:14.078Z,33.60
2022-11-30T07:53:40.873Z,32.72
2022-11-30T07:56:10.037Z,31.20
2022-11-30T07:58:37.029Z,33.25
2022-11-30T08:01:09.239Z,31.38
2022-11-30T08:03:37.279Z,34.90
2022-11-30T08:06:09.435Z,34.70
2022-11-30T08:08:37.954Z,32.45
2022-11-30T08:11:05.997Z,33.25
2022-11-30T08:13:32.850Z,34.28
2022-11-30T08:16:08.519Z,34.97
2022-11-30T08:18:35.557Z,31.83
2022-11-30T08:21:04.607Z,31.08
2022-11-30T08:23:32.300Z,32.42
2022-11-30T08:26:23.090Z,31.83
2022-11-30T08:28:50.690Z,30.92
2022-11-30T08:31:20.002Z,32.67
2022-11-30T08:33:47.178Z,35.25
2022-11-30T08:36:18.947Z,34.83
2022-11-30T08:38:45.977Z,35.55
2022-11-30T08:41:14.778Z,34.90
2022-11-30T08:43:41.609Z,33.30
2022-11-30T08:46:34.890Z,32.72
2022-11-30T08:49:12.987Z,34.13
2022-11-30T08:52:15.478Z,31.40
2022-11-30T08:54:31.159Z,33.78
2022-11-30T08:56:59.267Z,36.38
2022-11-30T08:59:26.066Z,35.08
2022-11-30T09:01:53.262Z,36.38
2022-11-30T09:04:20.036Z,35.72
2022-11-30T09:06:47.348Z,33.92
2022-11-30T09:09:14.064Z,35.35
2022-11-30T09:11:41.334Z,34.92
2022-11-30T09:14:09.250Z,34.75
2022-11-30T09:16:36.362Z,35.97
2022-11-30T09:19:03.264Z,36.30
2022-11-30T09:21:30.645Z,35.80
2022-11-30T09:23:57.398Z,35.28
2022-11-30T09:26:25.367Z,33.67
2022-11-30T09:28:52.771Z,36.70
2022-11-30T09:31:24.103Z,33.30
2022-11-30T09:33:51.147Z,34.65
2022-11-30T09:36:19.726Z,36.13
2022-11-30T09:38:46.906Z,39.05
2022-11-30T09:41:53.288Z,40.78
2022-11-30T09:44:39.112Z,35.63
2022-11-30T09:47:37.856Z,36.50
2022-11-30T09:50:26.276Z,37.25
2022-11-30T09:52:58.529Z,36.58
2022-11-30T09:55:30.706Z,36.80
2022-11-30T09:58:01.352Z,36.90
2022-11-30T10:00:28.088Z,36.88
2022-11-30T10:02:57.104Z,36.08
2022-11-30T10:05:30.471Z,38.67
2022-11-30T10:08:12.948Z,38.22
2022-11-30T10:10:44.632Z,35.83
2022-11-30T10:13:40.237Z,34.88
2022-11-30T10:16:25.500Z,37.90
2022-11-30T10:19:00.832Z,37.35
2022-11-30T10:21:36.560Z,37.42
2022-11-30T10:24:12.428Z,37.80
2022-11-30T10:26:40.080Z,39.97
2022-11-30T10:29:07.048Z,39.03
2022-11-30T10:31:35.383Z,38.40
2022-11-30T10:34:21.330Z,37.42
2022-11-30T10:37:12.630Z,39.80
2022-11-30T10:40:01.777Z,40.70
2022-11-30T10:42:46.813Z,38.03
2022-11-30T10:45:15.456Z,37.75
2022-11-30T10:48:03.862Z,36.08
2022-11-30T10:50:31.241Z,37.88
2022-11-30T10:52:59.340Z,37.90
2022-11-30T10:55:29.691Z,37.92
2022-11-30T10:58:00.105Z,37.08
2022-11-30T11:00:27.164Z,36.15
2022-11-30T11:02:54.050Z,37.53
2022-11-30T11:05:21.240Z,36.58
2022-11-30T11:08:08.314Z,36.75
2022-11-30T11:10:49.702Z,38.15
2022-11-30T11:13:18.387Z,36.95
2022-11-30T11:15:59.220Z,36.83
2022-11-30T11:18:29.989Z,36.00
2022-11-30T11:21:06.268Z,36.38
2022-11-30T11:23:34.806Z,35.05
2022-11-30T11:26:02.062Z,37.25
2022-11-30T11:28:28.794Z,35.42
2022-11-30T11:30:56.954Z,35.58
2022-11-30T11:33:23.793Z,36.67
2022-11-30T11:36:06.855Z,35.72
2022-11-30T11:38:44.446Z,34.10
2022-11-30T11:41:18.206Z,34.03
2022-11-30T11:44:03.853Z,34.58
2022-11-30T11:46:32.175Z,39.20
2022-11-30T11:49:21.414Z,36.92
2022-11-30T11:51:48.481Z,38.53
2022-11-30T11:54:35.611Z,36.75
2022-11-30T11:57:02.733Z,41.97
2022-11-30T11:59:32.949Z,38.95
2022-11-30T12:02:05.666Z,40.28
2022-11-30T12:04:50.445Z,40.20
2022-11-30T12:07:32.272Z,39.75
2022-11-30T12:10:50.742Z,37.45
2022-11-30T12:13:22.846Z,39.15
2022-11-30T12:16:10.509Z,39.20
2022-11-30T12:18:55.646Z,38.85
2022-11-30T12:21:22.377Z,37.80
2022-11-30T12:23:58.480Z,37.63
2022-11-30T12:26:38.487Z,39.97
2022-11-30T12:29:25.604Z,41.03
2022-11-30T12:32:15.579Z,39.50
2022-11-30T12:34:55.047Z,39.97
2022-11-30T12:37:27.692Z,39.03
2022-11-30T12:40:24.121Z,40.08
2022-11-30T12:45:41.183Z,37.85
2022-11-30T12:48:34.863Z,40.83
2022-11-30T12:51:29.352Z,39.75
2022-11-30T12:54:19.507Z,38.55
2022-11-30T12:57:04.416Z,39.75
2022-11-30T12:59:39.559Z,42.45
2022-11-30T13:02:12.731Z,42.78
2022-11-30T13:04:57.641Z,42.00
2022-11-30T13:07:34.437Z,41.90
2022-11-30T13:10:13.465Z,42.63
2022-11-30T13:12:45.142Z,41.25
2022-11-30T13:15:20.674Z,42.22
2022-11-30T13:17:48.065Z,40.63
2022-11-30T13:20:30.018Z,39.75
2022-11-30T13:23:11.208Z,40.60
2022-11-30T13:26:12.354Z,39.50
2022-11-30T13:28:42.529Z,40.17
2022-11-30T13:31:24.399Z,40.20
2022-11-30T13:33:54.557Z,40.20
2022-11-30T13:36:34.778Z,40.90
2022-11-30T13:39:17.412Z,41.45
2022-11-30T13:41:45.751Z,40.33
2022-11-30T13:44:40.729Z,41.20
2022-11-30T13:47:30.777Z,39.67
2022-11-30T13:50:21.726Z,39.72
2022-11-30T13:52:57.841Z,40.38
2022-11-30T13:55:34.098Z,40.03
2022-11-30T13:58:01.095Z,40.63
2022-11-30T14:00:31.217Z,41.35
2022-11-30T14:03:22.988Z,39.05
2022-11-30T14:05:50.689Z,40.88
2022-11-30T14:08:23.489Z,41.83
2022-11-30T14:10:54.862Z,40.55
2022-11-30T14:13:22.833Z,41.55
2022-11-30T14:15:49.896Z,41.35
2022-11-30T14:18:19.596Z,42.67
2022-11-30T14:20:50.336Z,40.55
2022-11-30T14:23:31.743Z,41.75
2022-11-30T14:26:11.083Z,41.72
2022-11-30T14:28:50.609Z,43.75
2022-11-30T14:31:21.043Z,42.03
2022-11-30T14:34:29.960Z,43.78
2022-11-30T14:36:59.798Z,43.90
2022-11-30T14:39:36.608Z,44.25
2022-11-30T14:42:04.761Z,42.58
2022-11-30T14:44:35.854Z,42.70
2022-11-30T14:47:31.668Z,43.25
2022-11-30T14:50:02.005Z,42.28
2022-11-30T14:52:41.241Z,43.35
2022-11-30T14:55:08.175Z,42.10
2022-11-30T14:57:35.345Z,41.20
2022-11-30T15:00:03.011Z,40.13
2022-11-30T15:02:37.266Z,39.05
2022-11-30T15:05:08.470Z,40.77
2022-11-30T15:07:35.734Z,39.03
2022-11-30T15:10:07.336Z,39.05
2022-11-30T15:12:34.559Z,40.33
2022-11-30T15:15:28.117Z,39.35
2022-11-30T15:17:59.496Z,38.40
2022-11-30T15:20:42.589Z,34.95
2022-11-30T15:23:13.265Z,38.22
2022-11-30T15:25:43.850Z,47.83
2022-11-30T15:28:12.537Z,45.80
2022-11-30T15:30:40.474Z,40.03
2022-11-30T15:33:15.723Z,38.50
2022-11-30T15:36:12.415Z,39.45
2022-11-30T15:38:32.638Z,41.22
2022-11-30T15:41:03.939Z,47.42
2022-11-30T15:43:40.032Z,41.42
2022-11-30T15:46:06.857Z,44.00
2022-11-30T15:48:37.453Z,43.60
2022-11-30T15:51:04.456Z,45.28
2022-11-30T15:53:51.133Z,41.63
2022-11-30T15:56:25.946Z,44.08
2022-11-30T15:59:06.318Z,44.05
2022-11-30T16:02:16.699Z,49.22
2022-11-30T16:05:09.560Z,48.53
2022-11-30T16:07:49.027Z,46.63
2022-11-30T16:10:17.309Z,47.75
2022-11-30T16:12:44.240Z,47.25
2022-11-30T16:15:28.337Z,49.15
2022-11-30T16:18:18.914Z,50.08
2022-11-30T16:20:50.790Z,48.72
2022-11-30T16:23:17.711Z,48.78
2022-11-30T16:25:45.617Z,49.03
2022-11-30T16:28:13.193Z,48.90
2022-11-30T16:30:41.182Z,47.58
2022-11-30T16:33:22.020Z,47.90
2022-11-30T16:36:07.137Z,46.38
2022-11-30T16:38:33.936Z,46.55
2022-11-30T16:41:20.180Z,45.03
2022-11-30T16:43:47.989Z,47.35
2022-11-30T16:46:20.115Z,45.55
2022-11-30T16:48:47.689Z,44.22
2022-11-30T16:51:44.424Z,41.20
2022-11-30T16:56:42.179Z,41.10
2022-11-30T16:59:13.514Z,43.65
2022-11-30T17:01:45.847Z,40.65
2022-11-30T17:04:31.076Z,40.97
2022-11-30T17:07:02.745Z,42.15
2022-11-30T17:09:30.491Z,39.28
2022-11-30T17:11:57.707Z,40.83
2022-11-30T17:14:24.619Z,41.15
2022-11-30T17:16:51.938Z,38.33
2022-11-30T17:19:18.735Z,41.35
2022-11-30T17:21:45.899Z,38.70
2022-11-30T17:24:12.698Z,37.80
2022-11-30T17:26:40.008Z,38.17
2022-11-30T17:29:06.781Z,37.45
2022-11-30T17:31:34.389Z,35.88
2022-11-30T17:34:01.239Z,34.50
2022-11-30T17:36:29.416Z,35.83
2022-11-30T17:38:56.761Z,37.00
2022-11-30T17:41:23.937Z,36.25
2022-11-30T17:43:52.040Z,34.28
2022-11-30T17:46:19.191Z,35.38
2022-11-30T17:48:46.050Z,36.80
2022-11-30T17:51:13.317Z,34.70
2022-11-30T17:53:41.081Z,33.47
2022-11-30T17:56:13.021Z,31.30
2022-11-30T17:58:43.679Z,33.50
2022-11-30T18:01:27.050Z,33.22
2022-11-30T18:03:54.399Z,33.50
2022-11-30T18:06:21.569Z,32.47
2022-11-30T18:08:48.344Z,32.20
2022-11-30T18:11:17.305Z,33.22
2022-11-30T18:13:44.169Z,32.22
2022-11-30T18:16:31.270Z,32.35
2022-11-30T18:18:58.739Z,33.15
2022-11-30T18:21:27.610Z,32.17
2022-11-30T18:23:54.375Z,31.63
2022-11-30T18:26:22.691Z,31.08
2022-11-30T18:28:56.453Z,32.13
2022-11-30T18:31:23.660Z,32.13
2022-11-30T18:33:57.715Z,30.90
2022-11-30T18:36:24.865Z,32.08
2022-11-30T18:38:51.614Z,30.15
2022-11-30T18:41:18.622Z,31.38
2022-11-30T18:43:45.349Z,29.70
2022-11-30T18:46:12.820Z,31.63
2022-11-30T18:48:40.416Z,31.42
2022-11-30T18:51:11.864Z,30.85
2022-11-30T18:53:38.678Z,30.23
2022-11-30T18:56:09.126Z,30.50
2022-11-30T18:58:35.877Z,28.67
2022-11-30T19:01:08.295Z,30.00
2022-11-30T19:03:36.175Z,29.67
2022-11-30T19:06:07.210Z,29.55
2022-11-30T19:08:34.712Z,30.25
2022-11-30T19:11:05.385Z,28.90
2022-11-30T19:13:32.919Z,29.83
2022-11-30T19:16:08.334Z,28.35
2022-11-30T19:18:35.697Z,31.00
2022-11-30T19:21:10.732Z,30.65
2022-11-30T19:23:38.230Z,30.33
2022-11-30T19:26:06.429Z,30.50
2022-11-30T19:28:34.360Z,29.90
2022-11-30T19:31:10.999Z,31.08
2022-11-30T19:33:38.948Z,32.72
2022-11-30T19:36:07.769Z,31.90
2022-11-30T19:38:35.028Z,33.15
2022-11-30T19:41:07.839Z,32.50
2022-11-30T19:43:35.066Z,32.17
2022-11-30T19:46:16.252Z,30.05
2022-11-30T19:48:43.991Z,31.67
2022-11-30T19:51:18.342Z,32.30
2022-11-30T19:53:45.992Z,29.58
2022-11-30T19:56:15.305Z,33.17
2022-11-30T19:58:44.043Z,31.40
2022-11-30T20:01:15.685Z,31.05
2022-11-30T20:03:44.548Z,31.67
2022-11-30T20:06:12.259Z,32.28
2022-11-30T20:08:39.487Z,31.00
2022-11-30T20:11:10.952Z,31.15
2022-11-30T20:13:37.922Z,32.15
2022-11-30T20:16:08.370Z,32.13
2022-11-30T20:18:35.284Z,33.35
2022-11-30T20:21:19.131Z,32.13
2022-11-30T20:23:47.291Z,33.55
2022-11-30T20:26:18.869Z,32.58
2022-11-30T20:28:46.649Z,31.77
2022-11-30T20:31:14.885Z,32.85
2022-11-30T20:33:41.891Z,32.58
2022-11-30T20:36:09.980Z,32.92
2022-11-30T20:38:36.824Z,31.77
2022-11-30T20:41:04.206Z,34.08
2022-11-30T20:43:31.015Z,32.47
2022-11-30T20:45:58.040Z,33.47
2022-11-30T20:48:24.874Z,32.88
2022-11-30T20:51:28.131Z,32.95
2022-11-30T20:53:39.146Z,32.47
2022-11-30T20:56:06.504Z,31.27
2022-11-30T20:58:33.436Z,32.80
2022-11-30T21:01:00.528Z,33.22
2022-11-30T21:03:27.891Z,33.58
2022-11-30T21:05:54.984Z,32.50
2022-11-30T21:08:21.711Z,30.48
2022-11-30T21:10:48.756Z,31.63
2022-11-30T21:13:15.452Z,33.38
2022-11-30T21:15:42.681Z,31.23
2022-11-30T21:18:09.688Z,31.60
2022-11-30T21:20:36.733Z,31.65
2022-11-30T21:23:03.463Z,31.30
2022-11-30T21:25:30.682Z,30.48
2022-11-30T21:27:57.367Z,30.55
2022-11-30T21:30:24.464Z,31.52
2022-11-30T21:32:51.203Z,32.28
2022-11-30T21:35:18.291Z,32.00
2022-11-30T21:37:45.020Z,32.58
2022-11-30T21:40:12.303Z,31.77
2022-11-30T21:42:39.062Z,31.42
2022-11-30T21:45:06.464Z,32.25
2022-11-30T21:47:33.245Z,31.48
2022-11-30T21:50:00.271Z,30.05
2022-11-30T21:52:27.094Z,32.88
2022-11-30T21:54:54.126Z,30.80
2022-11-30T21:57:21.631Z,30.80
2022-11-30T21:59:48.935Z,30.23
2022-11-30T22:02:15.879Z,30.85
2022-11-30T22:04:43.090Z,32.40
2022-11-30T22:07:11.779Z,31.27
2022-11-30T22:09:39.050Z,31.45
2022-11-30T22:12:05.884Z,31.38
2022-11-30T22:14:33.144Z,30.38
2022-11-30T22:16:59.928Z,31.23
2022-11-30T22:19:26.965Z,29.58
2022-11-30T22:21:53.744Z,30.40
2022-11-30T22:24:20.877Z,28.58
2022-11-30T22:26:49.233Z,28.95
2022-11-30T22:29:21.169Z,29.30
2022-11-30T22:31:49.063Z,28.13
2022-11-30T22:34:16.320Z,29.30
2022-11-30T22:36:43.801Z,27.70
2022-11-30T22:39:12.682Z,29.33
2022-11-30T22:41:40.232Z,29.25
2022-11-30T22:44:07.450Z,28.45
2022-11-30T22:46:35.311Z,29.95
2022-11-30T22:49:03.313Z,28.23
2022-11-30T22:51:30.888Z,28.63
2022-11-30T22:53:58.521Z,28.98
2022-11-30T22:56:27.058Z,28.67
2022-11-30T22:58:55.395Z,27.50
2022-11-30T23:01:24.308Z,27.83
2022-11-30T23:03:53.527Z,27.48
2022-11-30T23:06:20.701Z,27.17
2022-11-30T23:08:47.961Z,28.40
2022-11-30T23:11:19.458Z,26.23
2022-11-30T23:13:46.665Z,27.90
2022-11-30T23:16:14.214Z,28.20
2022-11-30T23:18:43.447Z,25.98
2022-11-30T23:21:12.628Z,28.00
2022-11-30T23:23:40.511Z,28.55
2022-11-30T23:26:16.169Z,25.75
2022-11-30T23:28:43.994Z,27.10
2022-11-30T23:31:32.372Z,26.88
2022-11-30T23:33:59.090Z,27.25
2022-11-30T23:36:25.878Z,26.73
2022-11-30T23:38:57.645Z,27.27
2022-11-30T23:41:24.501Z,26.77
2022-11-30T23:43:51.588Z,27.77
2022-11-30T23:46:18.373Z,27.75
2022-11-30T23:48:45.531Z,28.35
2022-11-30T23:51:12.253Z,26.60
2022-11-30T23:53:39.413Z,26.73
2022-11-30T23:56:07.998Z,27.55
2022-11-30T23:58:35.136Z,26.67
